LEIB/IBZ METAR and TAF weather

Enter ICAO airport designator
Station Type Date Time Source
LEIB METAR 2020/07/15 06:00 UTC NOAA

LEIB 150600Z 02003KT 350V060 CAVOK 23/19 Q1016 NOSIG


Station Type Date Time Source
LEIB Decoded METAR 2020/07/15 06:00 UTC NOAA

Ibiza / Es Codola, Spain (LEIB) 38-52N 001-23E 12M
Jul 15, 2020 - 02:00 AM EDT / 2020.07.15 0600 UTC
Wind: from the NNE (020 degrees) at 3 MPH (3 KT) (direction variable):0
Visibility: greater than 7 mile(s):0
Temperature: 73 F (23 C)
Dew Point: 66 F (19 C)
Relative Humidity: 78%
Pressure (altimeter): 30.00 in. Hg (1016 hPa)
ob: LEIB 150600Z 02003KT 350V060 CAVOK 23/19 Q1016 NOSIG
cycle: 6

Station Type Date Time Source
LEIB TAF 2020/07/15 03:36 UTC NOAA

TAF COR TAF COR LEIB 150231Z 1503/1603 01005KT 9999 FEW030 TX29/1512Z TN21/1506Z
BECMG 1507/1509 10010KT

Example: see airport list